sensor_id;sensor_type;location;lat;lon;timestamp;P1;durP1;ratioP1;P2;durP2;ratioP2
5357;SDS011;2702;51.014;7.170;2022-07-04T00:01:08;1.33;;;1.23;;
5357;SDS011;2702;51.014;7.170;2022-07-04T00:03:34;1.57;;;1.20;;
5357;SDS011;2702;51.014;7.170;2022-07-04T00:06:00;1.10;;;1.00;;
5357;SDS011;2702;51.014;7.170;2022-07-04T00:08:26;1.67;;;1.03;;
5357;SDS011;2702;51.014;7.170;2022-07-04T00:10:52;2.97;;;1.30;;
5357;SDS011;2702;51.014;7.170;2022-07-04T00:13:18;2.87;;;1.27;;
5357;SDS011;2702;51.014;7.170;2022-07-04T00:15:44;1.63;;;1.20;;
5357;SDS011;2702;51.014;7.170;2022-07-04T00:18:09;1.80;;;1.30;;
5357;SDS011;2702;51.014;7.170;2022-07-04T00:20:35;1.87;;;1.20;;
5357;SDS011;2702;51.014;7.170;2022-07-04T00:23:01;1.60;;;1.50;;
5357;SDS011;2702;51.014;7.170;2022-07-04T00:25:27;3.70;;;1.20;;
5357;SDS011;2702;51.014;7.170;2022-07-04T00:27:53;2.80;;;1.40;;
5357;SDS011;2702;51.014;7.170;2022-07-04T00:30:19;2.30;;;1.57;;
5357;SDS011;2702;51.014;7.170;2022-07-04T00:32:45;1.67;;;1.33;;
5357;SDS011;2702;51.014;7.170;2022-07-04T00:35:11;2.47;;;1.30;;
5357;SDS011;2702;51.014;7.170;2022-07-04T00:37:36;1.17;;;1.07;;
5357;SDS011;2702;51.014;7.170;2022-07-04T00:40:02;2.17;;;1.40;;
5357;SDS011;2702;51.014;7.170;2022-07-04T00:42:29;4.70;;;1.60;;
5357;SDS011;2702;51.014;7.170;2022-07-04T00:44:55;1.70;;;1.60;;
5357;SDS011;2702;51.014;7.170;2022-07-04T00:47:20;1.97;;;1.77;;
5357;SDS011;2702;51.014;7.170;2022-07-04T00:49:46;3.90;;;1.97;;
5357;SDS011;2702;51.014;7.170;2022-07-04T00:52:12;2.23;;;1.73;;
5357;SDS011;2702;51.014;7.170;2022-07-04T00:54:39;2.73;;;1.40;;
5357;SDS011;2702;51.014;7.170;2022-07-04T00:57:06;1.80;;;1.10;;
5357;SDS011;2702;51.014;7.170;2022-07-04T00:59:32;1.67;;;1.57;;
5357;SDS011;2702;51.014;7.170;2022-07-04T01:01:58;1.57;;;1.37;;
5357;SDS011;2702;51.014;7.170;2022-07-04T01:04:24;2.77;;;1.40;;
5357;SDS011;2702;51.014;7.170;2022-07-04T01:06:49;1.90;;;1.43;;
5357;SDS011;2702;51.014;7.170;2022-07-04T01:09:16;2.07;;;1.20;;
5357;SDS011;2702;51.014;7.170;2022-07-04T01:11:42;2.13;;;1.90;;
5357;SDS011;2702;51.014;7.170;2022-07-04T01:14:08;3.30;;;1.30;;
5357;SDS011;2702;51.014;7.170;2022-07-04T01:16:33;1.80;;;1.40;;
5357;SDS011;2702;51.014;7.170;2022-07-04T01:19:00;3.07;;;1.30;;
5357;SDS011;2702;51.014;7.170;2022-07-04T01:21:26;1.37;;;1.27;;
5357;SDS011;2702;51.014;7.170;2022-07-04T01:23:52;1.23;;;1.10;;
5357;SDS011;2702;51.014;7.170;2022-07-04T01:26:18;3.63;;;1.60;;
5357;SDS011;2702;51.014;7.170;2022-07-04T01:28:44;1.87;;;1.20;;
5357;SDS011;2702;51.014;7.170;2022-07-04T01:31:10;4.23;;;1.53;;
5357;SDS011;2702;51.014;7.170;2022-07-04T01:33:36;1.53;;;1.40;;
5357;SDS011;2702;51.014;7.170;2022-07-04T01:36:02;2.80;;;1.20;;
5357;SDS011;2702;51.014;7.170;2022-07-04T01:38:28;2.60;;;1.30;;
5357;SDS011;2702;51.014;7.170;2022-07-04T01:40:54;4.30;;;1.40;;
5357;SDS011;2702;51.014;7.170;2022-07-04T01:43:20;1.57;;;1.30;;
5357;SDS011;2702;51.014;7.170;2022-07-04T01:45:46;2.40;;;1.33;;
5357;SDS011;2702;51.014;7.170;2022-07-04T01:48:12;1.63;;;1.30;;
5357;SDS011;2702;51.014;7.170;2022-07-04T01:50:39;1.73;;;1.37;;
5357;SDS011;2702;51.014;7.170;2022-07-04T01:53:05;1.90;;;1.40;;
5357;SDS011;2702;51.014;7.170;2022-07-04T01:55:31;2.03;;;1.57;;
5357;SDS011;2702;51.014;7.170;2022-07-04T01:57:57;2.77;;;1.50;;
5357;SDS011;2702;51.014;7.170;2022-07-04T02:00:23;1.67;;;1.30;;
5357;SDS011;2702;51.014;7.170;2022-07-04T02:03:11;2.47;;;1.50;;
5357;SDS011;2702;51.014;7.170;2022-07-04T02:05:37;5.30;;;1.43;;
5357;SDS011;2702;51.014;7.170;2022-07-04T02:08:04;1.63;;;1.53;;
5357;SDS011;2702;51.014;7.170;2022-07-04T02:10:31;2.03;;;1.30;;
5357;SDS011;2702;51.014;7.170;2022-07-04T02:12:56;2.13;;;1.37;;
5357;SDS011;2702;51.014;7.170;2022-07-04T02:15:33;1.80;;;1.43;;
5357;SDS011;2702;51.014;7.170;2022-07-04T02:18:02;2.33;;;1.80;;
5357;SDS011;2702;51.014;7.170;2022-07-04T02:20:33;2.50;;;1.40;;
5357;SDS011;2702;51.014;7.170;2022-07-04T02:23:00;2.27;;;1.50;;
5357;SDS011;2702;51.014;7.170;2022-07-04T02:25:27;1.60;;;1.47;;
5357;SDS011;2702;51.014;7.170;2022-07-04T02:27:53;1.60;;;1.50;;
5357;SDS011;2702;51.014;7.170;2022-07-04T02:30:19;3.33;;;1.20;;
5357;SDS011;2702;51.014;7.170;2022-07-04T02:32:44;2.37;;;1.10;;
5357;SDS011;2702;51.014;7.170;2022-07-04T02:35:10;1.50;;;1.40;;
5357;SDS011;2702;51.014;7.170;2022-07-04T02:37:37;1.93;;;1.10;;
5357;SDS011;2702;51.014;7.170;2022-07-04T02:40:04;1.73;;;1.30;;
5357;SDS011;2702;51.014;7.170;2022-07-04T02:42:31;2.03;;;1.57;;
5357;SDS011;2702;51.014;7.170;2022-07-04T02:44:58;1.57;;;1.43;;
5357;SDS011;2702;51.014;7.170;2022-07-04T02:47:25;2.97;;;1.47;;
5357;SDS011;2702;51.014;7.170;2022-07-04T02:49:52;3.60;;;1.57;;
5357;SDS011;2702;51.014;7.170;2022-07-04T02:52:18;2.40;;;1.30;;
5357;SDS011;2702;51.014;7.170;2022-07-04T02:54:44;2.17;;;1.33;;
5357;SDS011;2702;51.014;7.170;2022-07-04T02:57:12;2.47;;;1.50;;
5357;SDS011;2702;51.014;7.170;2022-07-04T02:59:38;1.27;;;1.17;;
5357;SDS011;2702;51.014;7.170;2022-07-04T03:02:04;1.73;;;1.40;;
5357;SDS011;2702;51.014;7.170;2022-07-04T03:04:30;1.73;;;1.40;;
5357;SDS011;2702;51.014;7.170;2022-07-04T03:06:56;3.53;;;1.80;;
5357;SDS011;2702;51.014;7.170;2022-07-04T03:09:21;1.80;;;1.70;;
5357;SDS011;2702;51.014;7.170;2022-07-04T03:11:47;2.60;;;2.40;;
5357;SDS011;2702;51.014;7.170;2022-07-04T03:14:13;2.03;;;1.87;;
5357;SDS011;2702;51.014;7.170;2022-07-04T03:16:40;3.43;;;1.97;;
5357;SDS011;2702;51.014;7.170;2022-07-04T03:19:05;3.37;;;2.67;;
5357;SDS011;2702;51.014;7.170;2022-07-04T03:21:32;2.53;;;2.00;;
5357;SDS011;2702;51.014;7.170;2022-07-04T03:23:58;3.90;;;1.73;;
5357;SDS011;2702;51.014;7.170;2022-07-04T03:26:28;1.93;;;1.73;;
5357;SDS011;2702;51.014;7.170;2022-07-04T03:28:56;2.77;;;1.87;;
5357;SDS011;2702;51.014;7.170;2022-07-04T03:31:23;2.50;;;2.00;;
5357;SDS011;2702;51.014;7.170;2022-07-04T03:33:50;2.60;;;1.90;;
5357;SDS011;2702;51.014;7.170;2022-07-04T03:36:16;3.30;;;1.50;;
5357;SDS011;2702;51.014;7.170;2022-07-04T03:38:43;4.67;;;1.90;;
5357;SDS011;2702;51.014;7.170;2022-07-04T03:41:09;1.80;;;1.70;;
5357;SDS011;2702;51.014;7.170;2022-07-04T03:43:36;3.17;;;2.10;;
5357;SDS011;2702;51.014;7.170;2022-07-04T03:46:02;1.80;;;1.70;;
5357;SDS011;2702;51.014;7.170;2022-07-04T03:48:29;2.57;;;2.00;;
5357;SDS011;2702;51.014;7.170;2022-07-04T03:50:55;2.60;;;2.40;;
5357;SDS011;2702;51.014;7.170;2022-07-04T03:53:21;2.83;;;2.60;;
5357;SDS011;2702;51.014;7.170;2022-07-04T03:55:46;2.67;;;2.47;;
5357;SDS011;2702;51.014;7.170;2022-07-04T03:58:13;2.30;;;2.10;;
5357;SDS011;2702;51.014;7.170;2022-07-04T04:00:39;3.30;;;3.00;;
5357;SDS011;2702;51.014;7.170;2022-07-04T04:03:08;3.57;;;2.60;;
5357;SDS011;2702;51.014;7.170;2022-07-04T04:05:53;2.70;;;2.47;;
5357;SDS011;2702;51.014;7.170;2022-07-04T04:08:19;2.93;;;2.70;;
5357;SDS011;2702;51.014;7.170;2022-07-04T04:10:45;2.67;;;2.47;;
5357;SDS011;2702;51.014;7.170;2022-07-04T04:13:11;5.67;;;3.17;;
5357;SDS011;2702;51.014;7.170;2022-07-04T04:15:37;4.27;;;2.80;;
5357;SDS011;2702;51.014;7.170;2022-07-04T04:18:03;3.90;;;2.53;;
5357;SDS011;2702;51.014;7.170;2022-07-04T04:20:29;3.17;;;2.67;;
5357;SDS011;2702;51.014;7.170;2022-07-04T04:22:55;3.00;;;1.63;;
5357;SDS011;2702;51.014;7.170;2022-07-04T04:25:20;3.40;;;1.93;;
5357;SDS011;2702;51.014;7.170;2022-07-04T04:27:46;2.27;;;1.47;;
5357;SDS011;2702;51.014;7.170;2022-07-04T04:30:12;4.00;;;1.93;;
5357;SDS011;2702;51.014;7.170;2022-07-04T04:32:38;2.23;;;2.03;;
5357;SDS011;2702;51.014;7.170;2022-07-04T04:35:04;2.87;;;2.20;;
5357;SDS011;2702;51.014;7.170;2022-07-04T04:37:30;2.53;;;2.07;;
5357;SDS011;2702;51.014;7.170;2022-07-04T04:39:56;2.17;;;1.70;;
5357;SDS011;2702;51.014;7.170;2022-07-04T04:42:22;4.70;;;1.97;;
5357;SDS011;2702;51.014;7.170;2022-07-04T04:44:48;3.00;;;1.97;;
5357;SDS011;2702;51.014;7.170;2022-07-04T04:47:17;3.43;;;2.10;;
5357;SDS011;2702;51.014;7.170;2022-07-04T04:49:43;4.47;;;2.67;;
5357;SDS011;2702;51.014;7.170;2022-07-04T04:52:09;2.33;;;2.13;;
5357;SDS011;2702;51.014;7.170;2022-07-04T04:54:35;2.17;;;2.03;;
5357;SDS011;2702;51.014;7.170;2022-07-04T04:57:01;3.40;;;1.80;;
5357;SDS011;2702;51.014;7.170;2022-07-04T04:59:27;2.20;;;1.87;;
5357;SDS011;2702;51.014;7.170;2022-07-04T05:01:55;2.60;;;2.40;;
5357;SDS011;2702;51.014;7.170;2022-07-04T05:04:21;2.70;;;2.27;;
5357;SDS011;2702;51.014;7.170;2022-07-04T05:06:47;3.30;;;3.00;;
5357;SDS011;2702;51.014;7.170;2022-07-04T05:09:13;4.07;;;3.67;;
5357;SDS011;2702;51.014;7.170;2022-07-04T05:11:39;3.77;;;3.43;;
5357;SDS011;2702;51.014;7.170;2022-07-04T05:14:06;3.43;;;3.13;;
5357;SDS011;2702;51.014;7.170;2022-07-04T05:16:32;4.00;;;3.00;;
5357;SDS011;2702;51.014;7.170;2022-07-04T05:18:58;2.77;;;2.57;;
5357;SDS011;2702;51.014;7.170;2022-07-04T05:21:24;4.37;;;3.07;;
5357;SDS011;2702;51.014;7.170;2022-07-04T05:23:51;2.87;;;2.63;;
5357;SDS011;2702;51.014;7.170;2022-07-04T05:26:18;4.80;;;3.40;;
5357;SDS011;2702;51.014;7.170;2022-07-04T05:28:44;3.93;;;3.03;;
5357;SDS011;2702;51.014;7.170;2022-07-04T05:31:10;3.23;;;2.93;;
5357;SDS011;2702;51.014;7.170;2022-07-04T05:33:36;3.33;;;2.90;;
5357;SDS011;2702;51.014;7.170;2022-07-04T05:36:02;4.00;;;2.83;;
5357;SDS011;2702;51.014;7.170;2022-07-04T05:38:28;2.90;;;2.70;;
5357;SDS011;2702;51.014;7.170;2022-07-04T05:40:54;3.20;;;3.00;;
5357;SDS011;2702;51.014;7.170;2022-07-04T05:43:20;4.17;;;3.50;;
5357;SDS011;2702;51.014;7.170;2022-07-04T05:45:46;3.90;;;3.13;;
5357;SDS011;2702;51.014;7.170;2022-07-04T05:48:15;4.37;;;3.90;;
5357;SDS011;2702;51.014;7.170;2022-07-04T05:50:41;6.27;;;4.60;;
5357;SDS011;2702;51.014;7.170;2022-07-04T05:53:07;3.87;;;3.47;;
5357;SDS011;2702;51.014;7.170;2022-07-04T05:55:33;7.00;;;4.80;;
5357;SDS011;2702;51.014;7.170;2022-07-04T05:58:00;5.60;;;3.93;;
5357;SDS011;2702;51.014;7.170;2022-07-04T06:00:26;5.20;;;4.50;;
5357;SDS011;2702;51.014;7.170;2022-07-04T06:02:52;5.27;;;4.57;;
5357;SDS011;2702;51.014;7.170;2022-07-04T06:05:18;4.53;;;4.13;;
5357;SDS011;2702;51.014;7.170;2022-07-04T06:07:43;4.23;;;3.83;;
5357;SDS011;2702;51.014;7.170;2022-07-04T06:10:09;6.77;;;4.63;;
5357;SDS011;2702;51.014;7.170;2022-07-04T06:12:35;4.93;;;4.53;;
5357;SDS011;2702;51.014;7.170;2022-07-04T06:15:01;5.20;;;4.60;;
5357;SDS011;2702;51.014;7.170;2022-07-04T06:17:28;5.40;;;4.90;;
5357;SDS011;2702;51.014;7.170;2022-07-04T06:19:53;6.30;;;5.70;;
5357;SDS011;2702;51.014;7.170;2022-07-04T06:22:20;5.47;;;4.97;;
5357;SDS011;2702;51.014;7.170;2022-07-04T06:24:46;6.20;;;5.57;;
5357;SDS011;2702;51.014;7.170;2022-07-04T06:27:11;6.97;;;5.47;;
5357;SDS011;2702;51.014;7.170;2022-07-04T06:29:38;6.60;;;6.00;;
5357;SDS011;2702;51.014;7.170;2022-07-04T06:32:05;5.73;;;4.83;;
5357;SDS011;2702;51.014;7.170;2022-07-04T06:34:32;4.90;;;4.30;;
5357;SDS011;2702;51.014;7.170;2022-07-04T06:37:16;9.63;;;4.27;;
5357;SDS011;2702;51.014;7.170;2022-07-04T06:39:42;5.00;;;4.50;;
5357;SDS011;2702;51.014;7.170;2022-07-04T06:42:08;4.97;;;3.87;;
5357;SDS011;2702;51.014;7.170;2022-07-04T06:44:34;5.27;;;3.83;;
5357;SDS011;2702;51.014;7.170;2022-07-04T06:47:00;3.80;;;3.30;;
5357;SDS011;2702;51.014;7.170;2022-07-04T06:49:26;5.57;;;3.93;;
5357;SDS011;2702;51.014;7.170;2022-07-04T06:51:52;3.63;;;3.20;;
5357;SDS011;2702;51.014;7.170;2022-07-04T06:54:17;4.47;;;3.23;;
5357;SDS011;2702;51.014;7.170;2022-07-04T06:56:43;5.20;;;3.30;;
5357;SDS011;2702;51.014;7.170;2022-07-04T06:59:09;8.40;;;3.80;;
5357;SDS011;2702;51.014;7.170;2022-07-04T07:01:35;4.23;;;3.00;;
5357;SDS011;2702;51.014;7.170;2022-07-04T07:04:01;3.43;;;2.73;;
5357;SDS011;2702;51.014;7.170;2022-07-04T07:06:27;3.87;;;3.03;;
5357;SDS011;2702;51.014;7.170;2022-07-04T07:08:53;3.37;;;2.10;;
5357;SDS011;2702;51.014;7.170;2022-07-04T07:11:18;2.50;;;2.30;;
5357;SDS011;2702;51.014;7.170;2022-07-04T07:13:48;2.60;;;2.40;;
5357;SDS011;2702;51.014;7.170;2022-07-04T07:16:16;5.20;;;2.70;;
5357;SDS011;2702;51.014;7.170;2022-07-04T07:18:44;3.40;;;2.63;;
5357;SDS011;2702;51.014;7.170;2022-07-04T07:21:10;3.77;;;2.30;;
5357;SDS011;2702;51.014;7.170;2022-07-04T07:23:39;2.60;;;2.00;;
5357;SDS011;2702;51.014;7.170;2022-07-04T07:26:06;4.00;;;2.30;;
5357;SDS011;2702;51.014;7.170;2022-07-04T07:28:33;4.63;;;3.70;;
5357;SDS011;2702;51.014;7.170;2022-07-04T07:31:00;2.50;;;2.30;;
5357;SDS011;2702;51.014;7.170;2022-07-04T07:33:26;3.47;;;2.03;;
5357;SDS011;2702;51.014;7.170;2022-07-04T07:35:52;2.23;;;2.00;;
5357;SDS011;2702;51.014;7.170;2022-07-04T07:38:18;2.90;;;1.90;;
5357;SDS011;2702;51.014;7.170;2022-07-04T07:40:44;2.70;;;1.60;;
5357;SDS011;2702;51.014;7.170;2022-07-04T07:43:10;2.73;;;1.70;;
5357;SDS011;2702;51.014;7.170;2022-07-04T07:45:36;2.73;;;1.80;;
5357;SDS011;2702;51.014;7.170;2022-07-04T07:48:02;1.10;;;1.00;;
5357;SDS011;2702;51.014;7.170;2022-07-04T07:50:28;2.27;;;1.30;;
5357;SDS011;2702;51.014;7.170;2022-07-04T07:52:55;1.20;;;1.13;;
5357;SDS011;2702;51.014;7.170;2022-07-04T07:55:20;1.33;;;1.23;;
5357;SDS011;2702;51.014;7.170;2022-07-04T07:57:46;1.47;;;1.37;;
5357;SDS011;2702;51.014;7.170;2022-07-04T08:00:12;1.30;;;1.20;;
5357;SDS011;2702;51.014;7.170;2022-07-04T08:02:38;2.57;;;1.60;;
5357;SDS011;2702;51.014;7.170;2022-07-04T08:05:23;2.17;;;1.30;;
5357;SDS011;2702;51.014;7.170;2022-07-04T08:07:48;2.40;;;1.43;;
5357;SDS011;2702;51.014;7.170;2022-07-04T08:10:14;1.17;;;1.00;;
5357;SDS011;2702;51.014;7.170;2022-07-04T08:12:40;2.33;;;1.50;;
5357;SDS011;2702;51.014;7.170;2022-07-04T08:15:07;4.27;;;1.60;;
5357;SDS011;2702;51.014;7.170;2022-07-04T08:17:34;1.80;;;1.70;;
5357;SDS011;2702;51.014;7.170;2022-07-04T08:20:00;1.67;;;1.57;;
5357;SDS011;2702;51.014;7.170;2022-07-04T08:22:28;2.20;;;1.93;;
5357;SDS011;2702;51.014;7.170;2022-07-04T08:24:54;1.50;;;1.40;;
5357;SDS011;2702;51.014;7.170;2022-07-04T08:27:19;2.50;;;1.43;;
5357;SDS011;2702;51.014;7.170;2022-07-04T08:29:47;2.23;;;2.00;;
5357;SDS011;2702;51.014;7.170;2022-07-04T08:32:13;3.77;;;1.93;;
5357;SDS011;2702;51.014;7.170;2022-07-04T08:34:39;4.20;;;2.20;;
5357;SDS011;2702;51.014;7.170;2022-07-04T08:37:07;4.97;;;2.17;;
5357;SDS011;2702;51.014;7.170;2022-07-04T08:39:34;5.20;;;2.37;;
5357;SDS011;2702;51.014;7.170;2022-07-04T08:42:05;3.90;;;1.97;;
5357;SDS011;2702;51.014;7.170;2022-07-04T08:44:37;3.07;;;2.00;;
5357;SDS011;2702;51.014;7.170;2022-07-04T08:47:09;2.03;;;1.93;;
5357;SDS011;2702;51.014;7.170;2022-07-04T08:49:35;2.87;;;2.40;;
5357;SDS011;2702;51.014;7.170;2022-07-04T08:52:04;3.63;;;1.90;;
5357;SDS011;2702;51.014;7.170;2022-07-04T08:54:34;4.63;;;2.10;;
5357;SDS011;2702;51.014;7.170;2022-07-04T08:57:20;1.70;;;1.37;;
5357;SDS011;2702;51.014;7.170;2022-07-04T09:00:07;3.23;;;1.90;;
5357;SDS011;2702;51.014;7.170;2022-07-04T09:02:33;2.40;;;1.77;;
5357;SDS011;2702;51.014;7.170;2022-07-04T09:05:03;3.37;;;1.57;;
5357;SDS011;2702;51.014;7.170;2022-07-04T09:07:30;3.23;;;1.87;;
5357;SDS011;2702;51.014;7.170;2022-07-04T09:09:57;2.30;;;1.77;;
5357;SDS011;2702;51.014;7.170;2022-07-04T09:12:23;2.10;;;1.57;;
5357;SDS011;2702;51.014;7.170;2022-07-04T09:14:50;3.10;;;1.63;;
5357;SDS011;2702;51.014;7.170;2022-07-04T09:17:19;1.80;;;1.50;;
5357;SDS011;2702;51.014;7.170;2022-07-04T09:19:46;2.60;;;1.40;;
5357;SDS011;2702;51.014;7.170;2022-07-04T09:22:39;2.47;;;1.70;;
5357;SDS011;2702;51.014;7.170;2022-07-04T09:25:06;1.83;;;1.23;;
5357;SDS011;2702;51.014;7.170;2022-07-04T09:27:33;1.73;;;1.63;;
5357;SDS011;2702;51.014;7.170;2022-07-04T09:30:01;1.63;;;1.00;;
5357;SDS011;2702;51.014;7.170;2022-07-04T09:32:38;2.20;;;0.93;;
5357;SDS011;2702;51.014;7.170;2022-07-04T09:35:07;1.77;;;1.17;;
5357;SDS011;2702;51.014;7.170;2022-07-04T09:37:36;1.20;;;1.07;;
5357;SDS011;2702;51.014;7.170;2022-07-04T09:40:08;1.83;;;1.30;;
5357;SDS011;2702;51.014;7.170;2022-07-04T09:42:39;3.17;;;1.33;;
5357;SDS011;2702;51.014;7.170;2022-07-04T09:45:07;1.27;;;1.00;;
5357;SDS011;2702;51.014;7.170;2022-07-04T09:47:35;2.40;;;1.37;;
5357;SDS011;2702;51.014;7.170;2022-07-04T09:52:30;1.90;;;1.10;;
5357;SDS011;2702;51.014;7.170;2022-07-04T09:55:00;3.30;;;0.87;;
5357;SDS011;2702;51.014;7.170;2022-07-04T09:57:31;0.90;;;0.77;;
5357;SDS011;2702;51.014;7.170;2022-07-04T10:02:42;1.70;;;0.80;;
5357;SDS011;2702;51.014;7.170;2022-07-04T10:05:08;2.40;;;1.00;;
5357;SDS011;2702;51.014;7.170;2022-07-04T10:07:34;2.00;;;1.17;;
5357;SDS011;2702;51.014;7.170;2022-07-04T10:12:54;1.23;;;0.70;;
5357;SDS011;2702;51.014;7.170;2022-07-04T10:15:22;2.90;;;1.03;;
5357;SDS011;2702;51.014;7.170;2022-07-04T10:17:48;2.63;;;1.10;;
5357;SDS011;2702;51.014;7.170;2022-07-04T10:20:14;1.70;;;1.17;;
5357;SDS011;2702;51.014;7.170;2022-07-04T10:22:40;1.20;;;1.10;;
5357;SDS011;2702;51.014;7.170;2022-07-04T10:25:08;1.33;;;1.10;;
5357;SDS011;2702;51.014;7.170;2022-07-04T10:27:35;1.20;;;1.00;;
5357;SDS011;2702;51.014;7.170;2022-07-04T10:30:03;1.50;;;1.03;;
5357;SDS011;2702;51.014;7.170;2022-07-04T10:32:30;1.40;;;1.27;;
5357;SDS011;2702;51.014;7.170;2022-07-04T10:34:57;1.43;;;1.30;;
5357;SDS011;2702;51.014;7.170;2022-07-04T10:37:23;1.53;;;0.70;;
5357;SDS011;2702;51.014;7.170;2022-07-04T10:39:49;1.57;;;1.13;;
5357;SDS011;2702;51.014;7.170;2022-07-04T10:42:24;1.63;;;1.00;;
5357;SDS011;2702;51.014;7.170;2022-07-04T10:44:54;0.73;;;0.60;;
5357;SDS011;2702;51.014;7.170;2022-07-04T10:47:26;1.83;;;0.93;;
5357;SDS011;2702;51.014;7.170;2022-07-04T10:49:56;2.00;;;1.37;;
5357;SDS011;2702;51.014;7.170;2022-07-04T10:52:22;1.10;;;0.83;;
5357;SDS011;2702;51.014;7.170;2022-07-04T10:54:48;3.33;;;0.80;;
5357;SDS011;2702;51.014;7.170;2022-07-04T10:57:17;1.07;;;0.90;;
5357;SDS011;2702;51.014;7.170;2022-07-04T11:05:08;3.80;;;1.07;;
5357;SDS011;2702;51.014;7.170;2022-07-04T11:17:54;2.77;;;1.47;;
5357;SDS011;2702;51.014;7.170;2022-07-04T11:20:28;4.20;;;1.70;;
5357;SDS011;2702;51.014;7.170;2022-07-04T11:25:57;1.90;;;0.93;;
5357;SDS011;2702;51.014;7.170;2022-07-04T11:28:28;0.80;;;0.70;;
5357;SDS011;2702;51.014;7.170;2022-07-04T11:30:57;2.90;;;1.10;;
5357;SDS011;2702;51.014;7.170;2022-07-04T11:33:30;2.20;;;0.90;;
5357;SDS011;2702;51.014;7.170;2022-07-04T11:36:07;1.90;;;0.60;;
5357;SDS011;2702;51.014;7.170;2022-07-04T11:38:43;4.13;;;1.07;;
5357;SDS011;2702;51.014;7.170;2022-07-04T11:41:19;1.83;;;1.10;;
5357;SDS011;2702;51.014;7.170;2022-07-04T11:44:06;1.50;;;0.70;;
5357;SDS011;2702;51.014;7.170;2022-07-04T11:47:02;2.70;;;1.10;;
5357;SDS011;2702;51.014;7.170;2022-07-04T11:49:29;1.47;;;0.80;;
5357;SDS011;2702;51.014;7.170;2022-07-04T11:51:55;1.37;;;0.80;;
5357;SDS011;2702;51.014;7.170;2022-07-04T11:54:21;1.67;;;1.00;;
5357;SDS011;2702;51.014;7.170;2022-07-04T11:56:48;1.30;;;0.80;;
5357;SDS011;2702;51.014;7.170;2022-07-04T11:59:14;2.20;;;0.80;;
5357;SDS011;2702;51.014;7.170;2022-07-04T12:01:41;0.83;;;0.63;;
5357;SDS011;2702;51.014;7.170;2022-07-04T12:04:16;1.10;;;0.90;;
5357;SDS011;2702;51.014;7.170;2022-07-04T12:06:46;1.37;;;1.00;;
5357;SDS011;2702;51.014;7.170;2022-07-04T12:09:14;3.03;;;1.17;;
5357;SDS011;2702;51.014;7.170;2022-07-04T12:11:58;1.50;;;1.40;;
5357;SDS011;2702;51.014;7.170;2022-07-04T12:14:25;1.63;;;1.10;;
5357;SDS011;2702;51.014;7.170;2022-07-04T12:19:48;2.47;;;1.33;;
5357;SDS011;2702;51.014;7.170;2022-07-04T12:22:27;2.77;;;1.13;;
5357;SDS011;2702;51.014;7.170;2022-07-04T12:24:55;1.80;;;1.00;;
5357;SDS011;2702;51.014;7.170;2022-07-04T12:27:22;1.17;;;0.90;;
5357;SDS011;2702;51.014;7.170;2022-07-04T12:29:53;4.00;;;1.30;;
5357;SDS011;2702;51.014;7.170;2022-07-04T12:32:20;1.20;;;0.90;;
5357;SDS011;2702;51.014;7.170;2022-07-04T12:34:47;1.30;;;0.90;;
5357;SDS011;2702;51.014;7.170;2022-07-04T12:37:13;1.10;;;1.00;;
5357;SDS011;2702;51.014;7.170;2022-07-04T12:39:42;2.00;;;1.13;;
5357;SDS011;2702;51.014;7.170;2022-07-04T12:42:16;1.90;;;0.90;;
5357;SDS011;2702;51.014;7.170;2022-07-04T12:44:43;1.23;;;0.70;;
5357;SDS011;2702;51.014;7.170;2022-07-04T12:47:11;1.30;;;1.20;;
5357;SDS011;2702;51.014;7.170;2022-07-04T12:49:41;2.27;;;1.20;;
5357;SDS011;2702;51.014;7.170;2022-07-04T12:52:16;1.80;;;1.03;;
5357;SDS011;2702;51.014;7.170;2022-07-04T12:54:43;1.00;;;0.73;;
5357;SDS011;2702;51.014;7.170;2022-07-04T12:57:27;2.00;;;1.10;;
5357;SDS011;2702;51.014;7.170;2022-07-04T12:59:53;2.37;;;1.10;;
5357;SDS011;2702;51.014;7.170;2022-07-04T13:02:19;1.63;;;0.87;;
5357;SDS011;2702;51.014;7.170;2022-07-04T13:04:45;2.87;;;0.90;;
5357;SDS011;2702;51.014;7.170;2022-07-04T13:07:14;2.20;;;0.97;;
5357;SDS011;2702;51.014;7.170;2022-07-04T13:09:42;0.90;;;0.90;;
5357;SDS011;2702;51.014;7.170;2022-07-04T13:12:10;3.17;;;2.00;;
5357;SDS011;2702;51.014;7.170;2022-07-04T13:14:57;1.17;;;0.97;;
5357;SDS011;2702;51.014;7.170;2022-07-04T13:17:24;2.70;;;1.37;;
5357;SDS011;2702;51.014;7.170;2022-07-04T13:19:51;2.20;;;1.23;;
5357;SDS011;2702;51.014;7.170;2022-07-04T13:22:18;2.67;;;1.00;;
5357;SDS011;2702;51.014;7.170;2022-07-04T13:24:46;3.10;;;1.20;;
5357;SDS011;2702;51.014;7.170;2022-07-04T13:27:12;1.70;;;1.10;;
5357;SDS011;2702;51.014;7.170;2022-07-04T13:29:38;2.77;;;0.90;;
5357;SDS011;2702;51.014;7.170;2022-07-04T13:32:04;1.70;;;1.10;;
5357;SDS011;2702;51.014;7.170;2022-07-04T13:34:30;1.30;;;0.90;;
5357;SDS011;2702;51.014;7.170;2022-07-04T13:36:56;1.90;;;1.20;;
5357;SDS011;2702;51.014;7.170;2022-07-04T13:39:22;2.03;;;1.10;;
5357;SDS011;2702;51.014;7.170;2022-07-04T13:41:49;2.07;;;0.90;;
5357;SDS011;2702;51.014;7.170;2022-07-04T13:44:15;3.63;;;0.80;;
5357;SDS011;2702;51.014;7.170;2022-07-04T13:46:43;2.20;;;0.83;;
5357;SDS011;2702;51.014;7.170;2022-07-04T13:49:09;1.53;;;1.00;;
5357;SDS011;2702;51.014;7.170;2022-07-04T13:51:37;2.30;;;0.97;;
5357;SDS011;2702;51.014;7.170;2022-07-04T13:54:06;2.20;;;1.03;;
5357;SDS011;2702;51.014;7.170;2022-07-04T13:56:33;2.83;;;1.13;;
5357;SDS011;2702;51.014;7.170;2022-07-04T13:58:59;2.67;;;0.90;;
5357;SDS011;2702;51.014;7.170;2022-07-04T14:01:26;1.90;;;1.00;;
5357;SDS011;2702;51.014;7.170;2022-07-04T14:03:52;1.63;;;1.10;;
5357;SDS011;2702;51.014;7.170;2022-07-04T14:06:18;2.00;;;1.57;;
5357;SDS011;2702;51.014;7.170;2022-07-04T14:08:44;0.90;;;0.90;;
5357;SDS011;2702;51.014;7.170;2022-07-04T14:11:11;1.57;;;1.10;;
5357;SDS011;2702;51.014;7.170;2022-07-04T14:13:37;2.57;;;1.37;;
5357;SDS011;2702;51.014;7.170;2022-07-04T14:16:04;3.10;;;1.07;;
5357;SDS011;2702;51.014;7.170;2022-07-04T14:18:34;2.10;;;1.00;;
5357;SDS011;2702;51.014;7.170;2022-07-04T14:21:00;2.87;;;1.50;;
5357;SDS011;2702;51.014;7.170;2022-07-04T14:23:26;1.50;;;1.30;;
5357;SDS011;2702;51.014;7.170;2022-07-04T14:26:13;3.23;;;1.20;;
5357;SDS011;2702;51.014;7.170;2022-07-04T14:28:41;1.77;;;1.30;;
5357;SDS011;2702;51.014;7.170;2022-07-04T14:31:09;3.43;;;0.90;;
5357;SDS011;2702;51.014;7.170;2022-07-04T14:33:36;1.63;;;1.33;;
5357;SDS011;2702;51.014;7.170;2022-07-04T14:36:04;1.70;;;0.97;;
5357;SDS011;2702;51.014;7.170;2022-07-04T14:38:32;3.23;;;1.00;;
5357;SDS011;2702;51.014;7.170;2022-07-04T14:40:58;1.63;;;1.00;;
5357;SDS011;2702;51.014;7.170;2022-07-04T14:43:38;1.30;;;1.20;;
5357;SDS011;2702;51.014;7.170;2022-07-04T14:46:09;1.50;;;0.90;;
5357;SDS011;2702;51.014;7.170;2022-07-04T14:48:35;1.30;;;1.20;;
5357;SDS011;2702;51.014;7.170;2022-07-04T14:51:02;1.13;;;0.97;;
5357;SDS011;2702;51.014;7.170;2022-07-04T14:53:29;2.43;;;1.37;;
5357;SDS011;2702;51.014;7.170;2022-07-04T14:55:55;2.53;;;1.27;;
5357;SDS011;2702;51.014;7.170;2022-07-04T14:58:21;4.77;;;1.60;;
5357;SDS011;2702;51.014;7.170;2022-07-04T15:00:47;1.90;;;1.47;;
5357;SDS011;2702;51.014;7.170;2022-07-04T15:03:12;1.70;;;1.50;;
5357;SDS011;2702;51.014;7.170;2022-07-04T15:05:38;2.07;;;1.50;;
5357;SDS011;2702;51.014;7.170;2022-07-04T15:08:04;4.53;;;1.43;;
5357;SDS011;2702;51.014;7.170;2022-07-04T15:10:30;4.80;;;1.60;;
5357;SDS011;2702;51.014;7.170;2022-07-04T15:12:56;3.97;;;1.43;;
5357;SDS011;2702;51.014;7.170;2022-07-04T15:15:25;1.30;;;1.20;;
5357;SDS011;2702;51.014;7.170;2022-07-04T15:17:51;2.70;;;1.50;;
5357;SDS011;2702;51.014;7.170;2022-07-04T15:20:18;3.53;;;1.40;;
5357;SDS011;2702;51.014;7.170;2022-07-04T15:23:03;2.83;;;1.30;;
5357;SDS011;2702;51.014;7.170;2022-07-04T15:25:47;2.30;;;1.70;;
5357;SDS011;2702;51.014;7.170;2022-07-04T15:28:13;4.20;;;1.40;;
5357;SDS011;2702;51.014;7.170;2022-07-04T15:30:39;2.27;;;1.47;;
5357;SDS011;2702;51.014;7.170;2022-07-04T15:33:05;1.97;;;1.37;;
5357;SDS011;2702;51.014;7.170;2022-07-04T15:35:31;2.50;;;1.20;;
5357;SDS011;2702;51.014;7.170;2022-07-04T15:37:57;1.27;;;1.17;;
5357;SDS011;2702;51.014;7.170;2022-07-04T15:40:23;1.73;;;1.10;;
5357;SDS011;2702;51.014;7.170;2022-07-04T15:42:49;1.40;;;1.27;;
5357;SDS011;2702;51.014;7.170;2022-07-04T15:45:15;2.20;;;1.03;;
5357;SDS011;2702;51.014;7.170;2022-07-04T15:47:41;1.30;;;1.20;;